Time;durP1;ratioP1;P1;durP2;ratioP2;P2;SDS_P1;SDS_P2;PMS_P1;PMS_P2;Temp;Humidity;BMP_temperature;BMP_pressure;BME280_temperature;BME280_humidity;BME280_pressure;Samples;Min_cycle;Max_cycle;Signal;HPM_P1;HPM_P2
2022/03/19 00:00:14;;;;;;;67.00;60.10;;;;;;;5.28;91.01;100875.03;5038202;27;103917;-70
2022/03/19 00:02:43;;;;;;;65.70;58.83;;;;;;;5.19;91.67;100884.81;5039313;27;103175;-70
2022/03/19 00:05:12;;;;;;;65.77;58.97;;;;;;;5.17;91.43;100876.97;5040924;27;102897;-70
2022/03/19 00:07:41;;;;;;;65.55;58.88;;;;;;;5.22;91.09;100876.91;5040138;27;102654;-70
2022/03/19 00:10:10;;;;;;;66.33;59.50;;;;;;;5.18;91.59;100870.84;5033933;27;103618;-70
2022/03/19 00:12:39;;;;;;;65.55;58.85;;;;;;;5.17;91.40;100869.09;5032352;27;103227;-70
2022/03/19 00:15:09;;;;;;;64.75;58.15;;;;;;;5.28;91.23;100870.69;5017336;27;102863;-70
2022/03/19 00:17:37;;;;;;;66.00;59.35;;;;;;;5.15;91.50;100870.00;5039536;27;103177;-70
2022/03/19 00:20:06;;;;;;;65.07;58.33;;;;;;;5.17;91.36;100869.09;5015750;27;103895;-70
2022/03/19 00:22:37;;;;;;;65.00;58.50;;;;;;;5.18;91.27;100876.09;5039929;27;103273;-70
2022/03/19 00:25:08;;;;;;;65.75;59.10;;;;;;;5.15;91.06;100876.13;5037477;27;102729;-70
2022/03/19 00:27:36;;;;;;;66.00;59.50;;;;;;;5.14;90.90;100871.75;5023353;27;102722;-70
2022/03/19 00:30:07;;;;;;;65.20;58.55;;;;;;;5.17;90.97;100874.34;5018200;27;104105;-69
2022/03/19 00:32:35;;;;;;;64.32;57.65;;;;;;;5.15;91.19;100878.75;5017087;27;104178;-70
2022/03/19 00:35:04;;;;;;;62.73;56.50;;;;;;;5.10;90.95;100882.34;5031915;27;102552;-70
2022/03/19 00:37:32;;;;;;;64.90;58.30;;;;;;;5.14;90.96;100870.91;5038791;27;103750;-69
2022/03/19 00:40:02;;;;;;;65.22;58.42;;;;;;;5.09;91.17;100859.63;5034729;27;103704;-69
2022/03/19 00:42:31;;;;;;;64.75;58.25;;;;;;;5.11;90.90;100863.94;5037255;27;103212;-69
2022/03/19 00:45:00;;;;;;;65.23;58.63;;;;;;;5.06;91.05;100864.91;5034730;27;102696;-70
2022/03/19 00:47:28;;;;;;;64.68;58.08;;;;;;;4.99;91.60;100856.31;5038016;27;104264;-70
2022/03/19 00:49:56;;;;;;;64.28;57.78;;;;;;;4.94;91.71;100862.50;5040043;27;103811;-70
2022/03/19 00:52:25;;;;;;;61.70;55.37;;;;;;;4.91;91.46;100855.53;5023908;27;104120;-71
2022/03/19 00:54:53;;;;;;;63.55;57.25;;;;;;;4.85;91.97;100852.16;5035167;27;103027;-70
2022/03/19 00:57:25;;;;;;;65.00;58.37;;;;;;;4.92;91.46;100857.28;5037879;27;103565;-70
2022/03/19 00:59:52;;;;;;;64.30;57.80;;;;;;;4.86;91.54;100849.50;5036936;27;103722;-70
2022/03/19 01:02:20;;;;;;;63.42;57.08;;;;;;;4.94;91.00;100842.38;5036293;27;103174;-70
2022/03/19 01:04:48;;;;;;;63.93;57.30;;;;;;;4.81;91.45;100847.84;5042064;27;102651;-69
2022/03/19 01:07:16;;;;;;;63.57;57.17;;;;;;;4.98;90.30;100851.06;5033890;27;102735;-70
2022/03/19 01:09:44;;;;;;;63.40;57.00;;;;;;;4.95;90.25;100852.00;5036185;27;103288;-70
2022/03/19 01:12:14;;;;;;;64.05;57.55;;;;;;;4.86;90.34;100846.88;5039153;27;103229;-70
2022/03/19 01:14:44;;;;;;;60.17;53.90;;;;;;;4.91;89.89;100850.28;5025444;27;102666;-70
2022/03/19 01:17:11;;;;;;;61.90;55.50;;;;;;;4.95;89.55;100846.75;5014722;27;103249;-71
2022/03/19 01:19:54;;;;;;;62.40;56.08;;;;;;;4.92;89.28;100846.78;5029346;27;103971;-70
2022/03/19 01:22:22;;;;;;;61.88;55.70;;;;;;;5.00;88.94;100849.28;5039705;27;103188;-69
2022/03/19 01:24:53;;;;;;;61.40;55.50;;;;;;;5.08;87.92;100844.81;5029858;27;103897;-70
2022/03/19 01:27:21;;;;;;;59.63;53.92;;;;;;;5.22;87.31;100846.28;5022481;27;104035;-69
2022/03/19 01:29:51;;;;;;;59.97;54.07;;;;;;;5.17;87.67;100842.03;5029289;27;104191;-70
2022/03/19 01:32:19;;;;;;;59.33;53.43;;;;;;;5.28;86.63;100846.19;5015541;27;102917;-70
2022/03/19 01:34:47;;;;;;;58.63;52.95;;;;;;;5.33;86.55;100848.75;5037857;27;103828;-69
2022/03/19 01:37:15;;;;;;;59.33;53.30;;;;;;;5.12;86.70;100849.97;5032603;27;103979;-70
2022/03/19 01:39:43;;;;;;;57.30;51.75;;;;;;;5.30;85.50;100837.44;5042985;27;103265;-70
2022/03/19 01:42:13;;;;;;;54.97;49.43;;;;;;;5.64;84.63;100841.19;5016728;27;103133;-71
2022/03/19 01:44:41;;;;;;;57.10;51.60;;;;;;;5.70;83.67;100838.44;5031559;27;102822;-70
2022/03/19 01:47:10;;;;;;;50.72;46.13;;;;;;;5.91;83.32;100838.06;5033832;27;103950;-70
2022/03/19 01:49:38;;;;;;;52.53;47.53;;;;;;;6.33;80.28;100831.06;5032227;27;104186;-70
2022/03/19 01:52:07;;;;;;;48.77;44.23;;;;;;;6.56;79.49;100833.19;5018581;27;104379;-70
2022/03/19 01:54:37;;;;;;;44.93;40.83;;;;;;;6.73;78.56;100820.53;5014918;27;102966;-71
2022/03/19 01:57:06;;;;;;;46.90;42.53;;;;;;;6.76;77.80;100830.97;5039599;27;104391;-70
2022/03/19 01:59:36;;;;;;;42.83;38.83;;;;;;;6.87;77.32;100823.69;5016156;27;105190;-70
2022/03/19 02:02:06;;;;;;;49.40;44.72;;;;;;;6.74;76.28;100824.88;5032801;27;103876;-70
2022/03/19 02:04:36;;;;;;;54.97;49.78;;;;;;;5.77;81.30;100834.81;5037933;27;103252;-70
2022/03/19 02:07:05;;;;;;;47.33;43.00;;;;;;;6.28;79.34;100832.94;5031959;27;103910;-70
2022/03/19 02:09:32;;;;;;;52.45;47.65;;;;;;;6.30;79.02;100824.13;5023422;27;104255;-71
2022/03/19 02:12:02;;;;;;;42.80;38.90;;;;;;;6.72;77.71;100829.31;5032067;27;103243;-70
2022/03/19 02:14:30;;;;;;;45.67;41.47;;;;;;;6.70;77.05;100820.59;5042760;27;102925;-70
2022/03/19 02:16:58;;;;;;;52.50;47.40;;;;;;;5.97;78.84;100832.72;5018980;27;103939;-71
2022/03/19 02:19:25;;;;;;;52.85;47.78;;;;;;;6.08;79.16;100833.34;5036715;27;104056;-70
2022/03/19 02:21:55;;;;;;;51.05;46.22;;;;;;;6.04;79.55;100831.66;5043195;27;103252;-70
2022/03/19 02:27:10;;;;;;;50.05;45.33;;;;;;;6.52;76.79;100826.25;5040508;27;102744;-70
2022/03/19 02:29:38;;;;;;;48.27;43.77;;;;;;;6.53;77.22;100823.63;5019333;27;104751;-70
2022/03/19 02:32:08;;;;;;;47.88;43.40;;;;;;;6.27;76.88;100818.06;5044308;27;102695;-71
2022/03/19 02:34:36;;;;;;;52.60;47.70;;;;;;;6.04;78.33;100821.16;5029917;27;102566;-71
2022/03/19 02:37:04;;;;;;;54.28;49.08;;;;;;;5.69;79.75;100818.38;5039539;27;103607;-70
2022/03/19 02:39:37;;;;;;;41.80;38.00;;;;;;;6.43;77.89;100812.44;5036618;27;103916;-70
2022/03/19 02:42:07;;;;;;;42.75;38.75;;;;;;;6.64;75.88;100804.97;5042072;27;103197;-71
2022/03/19 02:44:37;;;;;;;53.75;48.50;;;;;;;5.50;79.75;100814.38;5030301;27;103048;-70
2022/03/19 02:47:08;;;;;;;44.10;40.08;;;;;;;6.15;79.00;100806.06;5035672;27;102747;-70
2022/03/19 02:49:36;;;;;;;37.60;34.17;;;;;;;6.52;77.06;100810.50;5037006;27;104136;-70
2022/03/19 02:52:05;;;;;;;51.65;46.75;;;;;;;6.07;77.86;100813.25;5034032;27;103311;-71
2022/03/19 02:54:33;;;;;;;50.83;45.92;;;;;;;6.16;77.32;100806.94;5044304;27;103050;-70
2022/03/19 02:57:02;;;;;;;52.57;47.57;;;;;;;5.97;78.30;100808.22;5023838;27;104932;-70
2022/03/19 02:59:32;;;;;;;47.80;43.30;;;;;;;6.23;77.36;100806.75;5037390;27;103750;-70
2022/03/19 03:02:02;;;;;;;48.13;43.72;;;;;;;6.27;76.91;100799.69;5035024;27;103150;-70
2022/03/19 03:04:31;;;;;;;51.00;46.17;;;;;;;6.27;76.31;100803.19;5037784;27;102928;-70
2022/03/19 03:07:04;;;;;;;47.17;42.67;;;;;;;6.50;75.76;100796.56;5037026;27;102625;-70
2022/03/19 03:09:33;;;;;;;48.75;44.15;;;;;;;6.25;76.56;100797.13;5039189;27;103982;-71
2022/03/19 03:12:02;;;;;;;50.33;45.45;;;;;;;6.08;76.54;100804.47;5035003;27;104138;-70
2022/03/19 03:14:30;;;;;;;46.25;41.85;;;;;;;6.19;77.21;100802.50;5028356;27;102641;-70
2022/03/19 03:17:00;;;;;;;44.60;40.50;;;;;;;6.30;76.40;100795.25;5038979;27;102670;-70
2022/03/19 03:19:28;;;;;;;43.13;39.08;;;;;;;6.37;76.51;100807.31;5036311;27;104211;-71
2022/03/19 03:21:55;;;;;;;40.30;36.53;;;;;;;6.48;75.32;100801.84;5039135;27;103211;-71
2022/03/19 03:24:24;;;;;;;51.33;46.33;;;;;;;5.51;78.74;100806.47;5040629;27;102759;-70
2022/03/19 03:26:52;;;;;;;51.15;46.22;;;;;;;5.48;80.16;100805.63;5039032;27;103586;-71
2022/03/19 03:29:21;;;;;;;45.30;41.08;;;;;;;5.64;79.67;100799.25;5039048;27;103937;-70
2022/03/19 03:31:49;;;;;;;50.17;45.30;;;;;;;5.48;79.37;100801.28;5033664;27;103256;-70
2022/03/19 03:34:17;;;;;;;48.37;43.80;;;;;;;5.72;77.87;100794.69;5034620;27;102800;-71
2022/03/19 03:36:45;;;;;;;51.43;46.40;;;;;;;5.48;79.60;100797.78;5019837;27;104257;-70
2022/03/19 03:39:13;;;;;;;51.63;46.73;;;;;;;5.24;80.36;100802.59;5036062;27;104097;-70
2022/03/19 03:41:41;;;;;;;44.90;40.70;;;;;;;5.62;80.02;100793.13;5038199;27;103339;-70
2022/03/19 03:44:11;;;;;;;49.97;45.25;;;;;;;5.84;77.92;100791.81;5023826;27;103382;-71
2022/03/19 03:46:40;;;;;;;50.38;45.55;;;;;;;5.89;77.46;100792.66;5024048;27;104140;-71
2022/03/19 03:49:09;;;;;;;44.63;40.43;;;;;;;5.93;78.26;100786.41;5036919;27;103182;-70
2022/03/19 03:51:39;;;;;;;49.88;45.05;;;;;;;5.69;78.49;100784.28;5037250;27;103236;-70
2022/03/19 03:54:07;;;;;;;48.53;44.00;;;;;;;5.68;79.09;100782.53;5035355;27;102806;-70
2022/03/19 03:56:37;;;;;;;46.20;41.83;;;;;;;5.90;78.15;100789.09;5039371;27;104117;-71
2022/03/19 03:59:05;;;;;;;44.67;40.47;;;;;;;5.87;77.93;100786.53;5023882;27;104505;-70
2022/03/19 04:01:33;;;;;;;40.92;37.25;;;;;;;6.18;76.59;100782.38;5029218;27;103181;-70
2022/03/19 04:04:02;;;;;;;46.63;42.13;;;;;;;6.20;76.17;100777.94;5020342;27;103241;-70
2022/03/19 04:06:30;;;;;;;48.72;43.85;;;;;;;5.95;75.80;100786.41;5036367;27;102672;-71
2022/03/19 04:08:58;;;;;;;47.50;42.97;;;;;;;6.06;75.86;100782.66;5031688;27;103311;-70
2022/03/19 04:11:26;;;;;;;49.88;45.17;;;;;;;5.65;77.95;100778.22;5015383;27;104313;-70
2022/03/19 04:13:59;;;;;;;50.17;45.27;;;;;;;5.55;78.23;100781.06;5036588;27;102592;-70
2022/03/19 04:16:27;;;;;;;52.13;47.10;;;;;;;5.16;80.45;100783.53;5017251;27;104110;-70
2022/03/19 04:18:58;;;;;;;52.35;47.28;;;;;;;5.09;79.82;100776.66;5032479;27;103754;-70
2022/03/19 04:21:27;;;;;;;48.40;43.90;;;;;;;5.17;80.11;100780.00;5021869;27;104346;-71
2022/03/19 04:23:55;;;;;;;52.33;47.13;;;;;;;4.95;81.41;100772.53;5034831;27;102891;-70
2022/03/19 04:26:23;;;;;;;51.63;46.65;;;;;;;4.97;81.56;100773.38;5042333;27;103740;-70
2022/03/19 04:28:53;;;;;;;51.78;46.83;;;;;;;4.84;81.61;100774.47;5033552;27;104050;-70
2022/03/19 04:31:21;;;;;;;50.63;45.53;;;;;;;4.91;81.36;100783.97;5040988;27;103409;-70
2022/03/19 04:33:49;;;;;;;51.55;46.40;;;;;;;4.68;82.46;100779.97;5010623;27;102629;-70
2022/03/19 04:36:32;;;;;;;53.22;47.95;;;;;;;4.60;82.86;100775.72;5043165;27;102627;-70
2022/03/19 04:39:06;;;;;;;52.28;47.15;;;;;;;4.53;82.88;100780.19;5035232;27;103412;-70
2022/03/19 04:41:36;;;;;;;52.65;47.50;;;;;;;4.47;83.36;100782.03;5014051;27;104202;-71
2022/03/19 04:44:05;;;;;;;53.35;47.95;;;;;;;4.42;83.18;100781.22;5040788;27;102984;-70
2022/03/19 04:46:33;;;;;;;51.72;46.65;;;;;;;4.48;83.48;100775.91;5037681;27;102680;-70
2022/03/19 04:49:01;;;;;;;51.58;46.63;;;;;;;4.66;82.45;100775.63;5041139;27;103283;-70
2022/03/19 04:51:33;;;;;;;51.47;46.38;;;;;;;4.73;81.68;100769.41;5013765;27;103185;-70
2022/03/19 04:54:02;;;;;;;53.38;48.00;;;;;;;4.47;82.73;100775.03;5038403;27;102626;-70
2022/03/19 04:56:32;;;;;;;51.85;46.60;;;;;;;4.63;81.65;100778.31;5038848;27;102686;-70
2022/03/19 04:59:01;;;;;;;52.47;47.38;;;;;;;4.53;82.71;100776.69;5018770;27;104252;-70
2022/03/19 05:01:31;;;;;;;50.30;45.20;;;;;;;4.79;81.81;100771.94;5018235;27;103199;-70
2022/03/19 05:04:01;;;;;;;50.63;45.58;;;;;;;4.62;81.62;100766.09;5037009;27;102798;-70
2022/03/19 05:06:29;;;;;;;51.53;46.33;;;;;;;4.54;81.39;100758.38;5035661;27;103875;-70
2022/03/19 05:11:47;;;;;;;50.97;45.97;;;;;;;4.73;81.23;100766.78;5028302;27;103196;-70
2022/03/19 05:14:15;;;;;;;52.42;47.15;;;;;;;4.37;82.65;100756.88;5034980;27;102733;-70
2022/03/19 05:16:45;;;;;;;51.88;46.58;;;;;;;4.19;83.61;100757.13;5035252;27;103654;-70
2022/03/19 05:19:13;;;;;;;51.65;46.20;;;;;;;4.21;83.54;100756.22;5041773;27;103962;-70
2022/03/19 05:21:41;;;;;;;51.95;46.63;;;;;;;4.13;83.78;100752.03;5037589;27;103456;-70
2022/03/19 05:24:09;;;;;;;51.83;46.72;;;;;;;4.15;83.66;100755.47;5046548;27;102676;-70
2022/03/19 05:26:37;;;;;;;52.47;47.28;;;;;;;4.10;83.65;100758.13;5038131;27;103584;-70
2022/03/19 05:29:06;;;;;;;52.47;47.30;;;;;;;4.19;82.95;100759.75;5038724;27;103681;-70
2022/03/19 05:31:40;;;;;;;52.17;46.95;;;;;;;4.04;82.86;100759.06;5032182;27;103196;-70
2022/03/19 05:36:53;;;;;;;52.72;47.25;;;;;;;3.81;84.15;100755.06;5016953;27;104357;-70
2022/03/19 05:39:21;;;;;;;51.33;46.17;;;;;;;3.89;83.88;100754.06;5031925;27;103671;-70
2022/03/19 05:41:49;;;;;;;52.05;46.85;;;;;;;3.85;84.08;100762.81;5031922;27;103343;-70
2022/03/19 05:44:19;;;;;;;52.90;47.47;;;;;;;3.83;84.26;100758.50;5011292;27;103274;-71
2022/03/19 05:46:49;;;;;;;51.33;46.20;;;;;;;4.03;84.17;100749.53;5029041;27;103051;-71
2022/03/19 05:49:18;;;;;;;52.27;47.03;;;;;;;3.85;84.35;100754.97;5008320;27;104271;-71
2022/03/19 05:51:46;;;;;;;51.10;45.95;;;;;;;4.21;82.89;100751.00;5035269;27;103227;-70
2022/03/19 05:54:15;;;;;;;52.20;46.75;;;;;;;4.14;82.67;100749.38;5033026;27;102649;-71
2022/03/19 05:56:42;;;;;;;51.10;45.90;;;;;;;4.34;81.89;100751.69;5021989;27;103942;-70
2022/03/19 05:59:10;;;;;;;52.47;47.05;;;;;;;4.28;82.25;100751.78;5033657;27;104244;-70
2022/03/19 06:01:42;;;;;;;50.22;45.28;;;;;;;4.54;81.59;100749.66;5032463;27;103204;-69
2022/03/19 06:04:10;;;;;;;50.38;45.30;;;;;;;4.38;81.39;100761.25;5026886;27;102669;-70
2022/03/19 06:06:38;;;;;;;50.25;45.10;;;;;;;4.63;80.61;100752.97;5042510;27;103629;-73
2022/03/19 06:09:07;;;;;;;49.57;44.57;;;;;;;4.56;80.96;100753.09;5020265;27;104404;-73
2022/03/19 06:11:35;;;;;;;48.97;44.03;;;;;;;4.55;81.34;100751.34;5039094;27;105355;-73
2022/03/19 06:14:03;;;;;;;50.20;45.17;;;;;;;4.47;80.96;100750.59;5042178;27;103038;-71
2022/03/19 06:16:30;;;;;;;49.85;44.90;;;;;;;4.60;81.63;100750.38;5035919;27;102814;-72
2022/03/19 06:19:00;;;;;;;48.13;43.30;;;;;;;4.76;80.27;100755.38;5016007;27;104185;-73
2022/03/19 06:21:28;;;;;;;50.05;45.03;;;;;;;4.72;80.96;100754.56;5039944;27;103357;-70
2022/03/19 06:23:55;;;;;;;50.30;45.17;;;;;;;4.66;80.95;100752.03;5041230;27;102682;-70
2022/03/19 06:26:24;;;;;;;49.72;44.60;;;;;;;4.71;81.27;100754.59;5041578;27;103901;-72
2022/03/19 06:28:55;;;;;;;50.33;45.20;;;;;;;4.75;81.11;100751.03;5045119;27;103250;-72
2022/03/19 06:31:23;;;;;;;49.58;44.58;;;;;;;4.90;81.10;100753.41;5020334;27;103255;-72
2022/03/19 06:33:51;;;;;;;50.47;45.38;;;;;;;4.75;81.52;100759.75;5041863;27;102485;-70
2022/03/19 06:39:06;;;;;;;50.67;45.42;;;;;;;4.85;81.17;100758.75;5021601;27;104726;-70
2022/03/19 06:41:36;;;;;;;49.20;44.30;;;;;;;4.96;79.95;100753.31;5037522;27;103041;-70
2022/03/19 06:44:05;;;;;;;48.55;43.65;;;;;;;5.12;80.04;100753.00;5038928;27;102918;-70
2022/03/19 06:46:33;;;;;;;49.50;44.13;;;;;;;5.33;79.07;100749.16;5044989;27;104359;-69
2022/03/19 06:49:01;;;;;;;50.78;45.67;;;;;;;5.19;79.10;100752.00;5041978;27;103303;-70
2022/03/19 06:51:31;;;;;;;50.17;45.17;;;;;;;5.31;79.26;100750.91;5041615;27;103734;-70
2022/03/19 06:53:59;;;;;;;48.77;43.87;;;;;;;5.27;78.75;100751.88;5023094;27;103029;-70
2022/03/19 06:56:27;;;;;;;47.83;43.00;;;;;;;5.32;78.68;100751.78;5036601;27;102916;-70
2022/03/19 06:58:56;;;;;;;47.87;43.07;;;;;;;5.34;77.83;100760.47;5041492;27;103738;-70
2022/03/19 07:01:25;;;;;;;48.70;43.70;;;;;;;5.63;77.98;100752.91;5023212;27;103158;-70
2022/03/19 07:03:53;;;;;;;47.40;42.50;;;;;;;5.79;77.86;100759.56;5019468;27;103508;-70
2022/03/19 07:06:21;;;;;;;47.78;42.97;;;;;;;5.78;76.59;100745.59;5043124;27;103988;-70
2022/03/19 07:09:10;;;;;;;46.67;41.97;;;;;;;6.17;75.53;100738.69;5034704;27;103541;-70
2022/03/19 07:11:38;;;;;;;47.70;42.90;;;;;;;6.14;75.04;100740.50;5038219;27;103381;-70
2022/03/19 07:14:09;;;;;;;46.33;41.70;;;;;;;6.27;75.13;100734.94;5021131;27;102986;-70
2022/03/19 07:16:38;;;;;;;46.83;42.20;;;;;;;6.18;75.14;100752.63;5021845;27;104227;-70
2022/03/19 07:19:06;;;;;;;46.33;41.83;;;;;;;6.74;73.94;100743.44;5042578;27;103672;-70
2022/03/19 07:21:34;;;;;;;47.53;42.80;;;;;;;6.61;73.92;100742.88;5034760;27;104482;-70
2022/03/19 07:24:02;;;;;;;45.15;40.42;;;;;;;6.43;72.68;100741.53;5040933;27;102993;-70
2022/03/19 07:26:32;;;;;;;43.42;39.10;;;;;;;6.41;72.55;100742.47;5043046;27;104271;-70
2022/03/19 07:29:01;;;;;;;43.40;38.90;;;;;;;6.68;71.79;100739.19;5035691;27;103669;-70
2022/03/19 07:31:29;;;;;;;42.92;38.72;;;;;;;6.73;72.37;100721.56;5046193;27;103389;-70
2022/03/19 07:33:57;;;;;;;44.75;40.13;;;;;;;6.79;71.34;100733.69;5039945;27;102967;-70
2022/03/19 07:36:25;;;;;;;43.67;39.38;;;;;;;7.29;71.29;100732.38;5021547;27;104027;-70
2022/03/19 07:38:54;;;;;;;42.78;38.75;;;;;;;7.19;69.88;100731.75;5018190;27;104171;-70
2022/03/19 07:44:10;;;;;;;41.65;37.45;;;;;;;7.09;68.44;100725.00;5016012;27;102699;-71
2022/03/19 07:46:41;;;;;;;41.03;36.90;;;;;;;7.38;66.93;100722.44;5035288;27;104157;-70
2022/03/19 07:49:12;;;;;;;39.47;35.67;;;;;;;7.71;66.64;100719.78;5041394;27;103522;-70
2022/03/19 07:51:40;;;;;;;39.87;35.90;;;;;;;7.96;65.93;100720.78;5040856;27;103263;-68
2022/03/19 07:54:08;;;;;;;38.53;34.88;;;;;;;8.16;64.61;100721.06;5036799;27;103126;-69
2022/03/19 07:56:36;;;;;;;38.35;34.67;;;;;;;8.34;63.45;100707.31;5024207;27;103755;-70
2022/03/19 07:59:04;;;;;;;37.50;33.70;;;;;;;8.08;63.07;100723.06;5035840;27;104768;-69
2022/03/19 08:01:33;;;;;;;37.17;33.58;;;;;;;7.83;63.32;100708.91;5032004;27;103209;-70
2022/03/19 08:04:10;;;;;;;36.77;33.17;;;;;;;8.16;62.65;100707.88;5016000;27;102914;-70
2022/03/19 08:06:38;;;;;;;37.25;33.35;;;;;;;7.66;62.66;100705.91;5022595;27;104444;-70
2022/03/19 08:09:07;;;;;;;36.13;32.78;;;;;;;8.49;62.05;100708.63;5034343;27;103210;-69
2022/03/19 08:11:35;;;;;;;35.90;32.20;;;;;;;8.54;61.03;100710.19;5012087;27;103238;-70
2022/03/19 08:14:04;;;;;;;35.00;31.63;;;;;;;8.86;59.23;100703.00;5033065;27;102951;-70
2022/03/19 08:16:33;;;;;;;35.20;31.77;;;;;;;8.12;58.83;100701.84;5019688;27;103616;-66
2022/03/19 08:19:01;;;;;;;35.88;32.28;;;;;;;8.71;60.15;100707.88;5020714;27;104081;-67
2022/03/19 08:21:30;;;;;;;35.67;32.28;;;;;;;8.90;59.37;100705.47;5029192;27;103232;-67
2022/03/19 08:23:58;;;;;;;34.95;31.55;;;;;;;9.23;56.75;100699.00;5024646;27;103165;-67
2022/03/19 08:26:26;;;;;;;34.17;30.77;;;;;;;9.31;56.48;100688.22;5019861;27;102749;-67
2022/03/19 08:28:54;;;;;;;34.58;31.17;;;;;;;10.13;55.76;100679.84;5021614;27;104328;-66
2022/03/19 08:31:22;;;;;;;34.33;30.80;;;;;;;9.57;56.18;100688.09;5027738;27;103485;-67
2022/03/19 08:33:52;;;;;;;33.20;30.00;;;;;;;10.42;54.12;100679.53;5021920;27;105293;-68
2022/03/19 08:36:20;;;;;;;34.10;30.83;;;;;;;9.99;54.61;100676.84;5014507;27;103108;-68
2022/03/19 08:41:33;;;;;;;33.45;30.20;;;;;;;10.35;53.43;100671.00;5013426;27;103211;-67
2022/03/19 08:44:01;;;;;;;33.38;30.05;;;;;;;10.00;53.83;100668.00;5014055;27;102915;-67
2022/03/19 08:46:30;;;;;;;31.67;28.50;;;;;;;9.88;53.71;100670.19;5033987;27;104496;-68
2022/03/19 08:48:59;;;;;;;31.90;28.80;;;;;;;10.27;53.25;100674.88;5012916;27;104202;-68
2022/03/19 08:51:42;;;;;;;32.17;29.17;;;;;;;10.79;52.39;100671.81;4997192;27;103585;-69
2022/03/19 08:54:14;;;;;;;30.98;27.95;;;;;;;9.83;53.35;100666.88;5009760;27;103042;-67
2022/03/19 08:56:42;;;;;;;32.20;29.15;;;;;;;10.03;52.92;100668.75;5009984;27;102702;-67
2022/03/19 08:59:11;;;;;;;31.97;28.80;;;;;;;10.88;52.34;100668.78;5004131;27;104259;-66
2022/03/19 09:01:39;;;;;;;32.22;29.02;;;;;;;10.15;52.51;100656.88;5024091;27;103226;-69
2022/03/19 09:04:12;;;;;;;32.47;29.27;;;;;;;10.54;51.89;100660.53;5022172;27;102840;-69
2022/03/19 09:06:41;;;;;;;32.88;29.67;;;;;;;11.10;51.30;100654.59;5027379;27;103589;-70
2022/03/19 09:09:14;;;;;;;33.03;29.70;;;;;;;10.77;51.50;100652.50;5017373;27;103028;-70
2022/03/19 09:11:42;;;;;;;32.03;28.98;;;;;;;10.94;51.05;100646.50;5042263;27;103190;-70
2022/03/19 09:14:10;;;;;;;32.95;29.73;;;;;;;11.04;52.04;100646.03;5016228;27;103100;-70
2022/03/19 09:16:41;;;;;;;31.75;28.75;;;;;;;11.39;50.67;100643.59;5036971;27;102702;-70
2022/03/19 09:19:09;;;;;;;31.75;28.65;;;;;;;10.53;50.76;100642.94;5030486;27;104078;-70
2022/03/19 09:21:38;;;;;;;31.75;28.65;;;;;;;10.50;50.22;100643.06;5039940;27;104054;-70
2022/03/19 09:24:06;;;;;;;31.63;28.73;;;;;;;11.52;49.70;100642.09;5042585;27;102731;-69
2022/03/19 09:26:34;;;;;;;31.45;28.42;;;;;;;10.93;50.55;100635.06;5042687;27;104343;-70
2022/03/19 09:29:05;;;;;;;32.63;29.52;;;;;;;10.63;51.95;100639.00;5040172;27;104866;-69
2022/03/19 09:31:35;;;;;;;32.42;29.17;;;;;;;10.77;51.02;100628.72;5037388;27;103187;-70
2022/03/19 09:34:03;;;;;;;31.53;28.43;;;;;;;11.37;49.03;100622.47;5038226;27;102705;-70
2022/03/19 09:36:31;;;;;;;33.08;29.90;;;;;;;10.72;50.29;100625.38;5035541;27;103703;-69
2022/03/19 09:39:00;;;;;;;34.38;31.02;;;;;;;11.10;50.28;100618.44;5030232;27;104331;-69
2022/03/19 09:41:28;;;;;;;31.98;28.98;;;;;;;11.84;48.31;100623.00;5046362;27;103170;-69
2022/03/19 09:43:57;;;;;;;33.90;30.60;;;;;;;11.58;49.41;100615.34;5039202;27;102699;-69
2022/03/19 09:46:26;;;;;;;33.40;30.20;;;;;;;10.35;51.04;100612.00;5037599;27;103664;-69
2022/03/19 09:48:54;;;;;;;33.83;30.73;;;;;;;10.57;50.60;100607.53;5017805;27;103356;-69
2022/03/19 09:51:23;;;;;;;33.45;30.25;;;;;;;11.23;49.51;100600.25;5042139;27;103381;-70
2022/03/19 09:53:51;;;;;;;32.15;29.13;;;;;;;11.00;49.84;100590.69;5041867;27;103728;-69
2022/03/19 09:56:38;;;;;;;32.47;29.47;;;;;;;11.22;48.74;100588.81;5049808;27;102793;-69
2022/03/19 09:59:06;;;;;;;31.65;28.75;;;;;;;12.26;47.69;100579.44;5040189;27;103763;-70
2022/03/19 10:01:38;;;;;;;32.70;29.70;;;;;;;12.49;46.51;100579.16;5020454;27;103219;-73
2022/03/19 10:04:08;;;;;;;32.65;29.58;;;;;;;11.21;47.98;100572.97;5045106;27;102639;-70
2022/03/19 10:09:41;;;;;;;33.05;29.88;;;;;;;11.31;48.65;100563.72;5043517;27;104044;-70
2022/03/19 10:12:15;;;;;;;33.35;30.13;;;;;;;11.86;48.07;100551.38;5018634;27;104322;-70
2022/03/19 10:14:47;;;;;;;32.33;29.10;;;;;;;12.19;47.93;100545.28;5037262;27;102661;-69
2022/03/19 10:17:32;;;;;;;33.75;30.70;;;;;;;12.72;47.97;100534.59;5043552;27;104045;-70
2022/03/19 10:20:02;;;;;;;33.37;30.20;;;;;;;12.80;45.82;100542.13;5036124;27;104054;-70
2022/03/19 10:22:31;;;;;;;33.67;30.50;;;;;;;12.67;45.40;100536.63;5039585;27;103251;-71
2022/03/19 10:25:01;;;;;;;34.33;31.13;;;;;;;11.77;47.15;100536.81;5029509;27;103956;-68
2022/03/19 10:27:35;;;;;;;36.53;32.92;;;;;;;11.77;47.53;100539.44;5041701;27;103793;-71
2022/03/19 10:30:16;;;;;;;36.10;32.78;;;;;;;11.82;48.53;100540.06;5037020;27;103333;-68
2022/03/19 10:32:49;;;;;;;37.27;33.77;;;;;;;11.13;49.34;100538.94;5036783;27;103219;-69
2022/03/19 10:35:28;;;;;;;36.60;32.90;;;;;;;11.02;49.83;100520.94;5036568;27;102967;-69
2022/03/19 10:37:58;;;;;;;35.75;32.25;;;;;;;11.53;50.38;100519.44;5011679;27;103901;-69
2022/03/19 10:40:37;;;;;;;36.27;32.87;;;;;;;12.85;47.36;100512.72;5030515;27;104437;-68
2022/03/19 10:43:09;;;;;;;35.85;32.45;;;;;;;12.54;48.57;100511.69;5038986;27;103229;-69
2022/03/19 10:45:43;;;;;;;35.43;32.10;;;;;;;12.67;47.89;100503.94;5038779;27;103969;-70
2022/03/19 10:48:12;;;;;;;33.92;30.67;;;;;;;12.76;47.24;100493.72;5036054;27;103936;-69
2022/03/19 10:50:41;;;;;;;32.78;29.48;;;;;;;11.55;48.74;100497.25;5043877;27;103913;-69
2022/03/19 10:53:09;;;;;;;32.47;29.48;;;;;;;12.61;47.35;100488.34;5037203;27;103194;-69
2022/03/19 10:55:37;;;;;;;31.50;28.63;;;;;;;13.25;46.41;100488.41;5037328;27;103323;-69
2022/03/19 10:58:05;;;;;;;32.60;29.38;;;;;;;11.85;47.67;100476.38;5014828;27;104103;-69
2022/03/19 11:00:54;;;;;;;29.40;26.60;;;;;;;12.36;46.41;100478.19;5032042;27;103875;-70
2022/03/19 11:03:27;;;;;;;25.73;23.33;;;;;;;11.70;45.90;100466.56;5035837;27;103384;-69
2022/03/19 11:06:05;;;;;;;24.92;22.48;;;;;;;12.60;45.06;100463.63;5044100;27;102822;-69
2022/03/19 11:08:37;;;;;;;23.17;20.93;;;;;;;12.76;44.04;100450.41;5038090;27;104028;-69
2022/03/19 11:11:10;;;;;;;24.40;20.85;;;;;;;12.86;43.93;100443.66;5036131;27;103464;-68
2022/03/19 11:13:43;;;;;;;20.88;18.77;;;;;;;12.14;44.13;100436.03;5036636;27;103148;-68
2022/03/19 11:16:13;;;;;;;20.30;18.40;;;;;;;12.63;44.27;100439.59;5041589;27;102728;-68
2022/03/19 11:18:42;;;;;;;20.65;18.55;;;;;;;12.34;43.82;100436.78;5039990;27;103910;-68
2022/03/19 11:21:14;;;;;;;19.95;17.95;;;;;;;12.66;43.37;100433.28;5035183;27;104144;-68
2022/03/19 11:23:51;;;;;;;17.92;16.13;;;;;;;13.20;42.38;100419.69;5033626;27;103313;-68
2022/03/19 11:26:25;;;;;;;17.20;15.52;;;;;;;13.72;42.18;100422.03;5013617;27;102802;-69
2022/03/19 11:28:53;;;;;;;18.70;16.80;;;;;;;12.40;43.31;100408.16;5047394;27;104522;-68
2022/03/19 11:31:28;;;;;;;17.83;16.02;;;;;;;13.10;43.98;100413.19;5045768;27;104022;-68
2022/03/19 11:34:01;;;;;;;15.80;14.30;;;;;;;13.16;42.75;100407.53;5036632;27;103749;-69
2022/03/19 11:36:31;;;;;;;17.02;15.23;;;;;;;13.13;43.28;100412.16;5037941;27;102822;-68